»·PEaware :: N333ZA KMRY-KSMF

N333ZA :: KMRY-KSMF

FLIGHT INFORMATION

Flight Status: Arrived
Operator: Privately registered:
United States
More flights under this callsign
Pilot: Judd H. (29974)
Aircraft: CESSNA 210 CENTURION
(C210)
More flights by this aircraft type
Origin: KMRY Monterey Peninsula
United States
Destination: KSMF Sacramento Intl
United States
More flights between these airports :: More routes between these airports
Route: +MRY5 SHOEY SJC SALAD SAC KSMF
File this flight plan on PilotEdge
Remarks: req. MRY5.SHOEY SID
Altitude:
(Current/Filed)
12,000ft
Speed:
(Current/Filed)
150kts
Departed: 13-Nov-20 06:17 PM
Arrived: 13-Nov-20 07:24 PM
Distance/Time
Traveled:
127nm/1:07
Distance/Time
To Go:
Arrived

Flight Plot

Page will automatically refresh every two minutes.

Flight plan parsing failed; only flown route is shown


Map Options




Map Legend


Flown Route
Filed Route
Departure Airport
Arrival Airport
Navaid (VOR, NDB)
Fix

Horizontal Profiles

Position Reports

Time Latitude Longitude Heading Altitude Ground
Speed
13-Nov-20 18:02 36.588635 -121.852644 203 208ft 0kts
13-Nov-20 18:03 36.588635 -121.852644 203 208ft 0kts
13-Nov-20 18:04 36.588635 -121.852644 203 208ft 0kts
13-Nov-20 18:05 36.588632 -121.852646 202 208ft 0kts
13-Nov-20 18:06 36.588629 -121.852647 203 208ft 0kts
13-Nov-20 18:06 36.588627 -121.852648 203 208ft 0kts
13-Nov-20 18:08 36.588623 -121.852650 203 208ft 0kts
13-Nov-20 18:08 36.588621 -121.852652 203 208ft 0kts
13-Nov-20 18:10 36.588617 -121.852653 203 208ft 0kts
13-Nov-20 18:10 36.588615 -121.852655 203 208ft 0kts
13-Nov-20 18:11 36.588612 -121.852656 203 208ft 0kts
13-Nov-20 18:12 36.587769 -121.849169 113 208ft 20kts
13-Nov-20 18:13 36.585329 -121.842544 110 208ft 24kts
13-Nov-20 18:14 36.582975 -121.835454 109 208ft 12kts
13-Nov-20 18:15 36.583309 -121.833560 288 208ft 3kts
13-Nov-20 18:16 36.583904 -121.835347 293 209ft 49kts
13-Nov-20 18:17 36.596682 -121.870224 293 996ft 138kts
13-Nov-20 18:18 36.616986 -121.910184 308 2446ft 129kts
13-Nov-20 18:19 36.638558 -121.946037 304 3787ft 133kts
13-Nov-20 18:20 36.661220 -121.983128 309 4945ft 125kts
13-Nov-20 18:21 36.682856 -122.019458 301 6063ft 128kts
13-Nov-20 18:22 36.703696 -122.056975 302 7153ft 135kts
13-Nov-20 18:23 36.724091 -122.096259 304 8243ft 137kts
13-Nov-20 18:24 36.747621 -122.132485 337 9303ft 144kts
13-Nov-20 18:25 36.786544 -122.122991 9 10403ft 144kts
13-Nov-20 18:26 36.825764 -122.111906 10 11398ft 143kts
13-Nov-20 18:27 36.865178 -122.100030 10 12139ft 156kts
13-Nov-20 18:28 36.911075 -122.086068 11 12150ft 177kts
13-Nov-20 18:29 36.959676 -122.071284 11 12147ft 180kts
13-Nov-20 18:30 37.008950 -122.056324 11 12149ft 183kts
13-Nov-20 18:31 37.058434 -122.041272 10 12149ft 183kts
13-Nov-20 18:32 37.108090 -122.026147 10 12146ft 183kts
13-Nov-20 18:33 37.157704 -122.011036 9 12137ft 185kts
13-Nov-20 18:34 37.207722 -121.995758 9 12137ft 183kts
13-Nov-20 18:35 37.257025 -121.980694 8 12134ft 181kts
13-Nov-20 18:36 37.306144 -121.966230 8 12124ft 180kts
13-Nov-20 18:37 37.354659 -121.952325 8 12114ft 180kts
13-Nov-20 18:38 37.402782 -121.949290 351 12115ft 177kts
13-Nov-20 18:39 37.453078 -121.950694 359 12025ft 180kts
13-Nov-20 18:40 37.503133 -121.950071 354 12017ft 179kts
13-Nov-20 18:41 37.551021 -121.951691 354 12018ft 179kts
13-Nov-20 18:42 37.600551 -121.953073 354 12016ft 176kts
13-Nov-20 18:43 37.649011 -121.955528 352 12018ft 173kts
13-Nov-20 18:44 37.697476 -121.958744 352 12018ft 173kts
13-Nov-20 18:45 37.745905 -121.957957 355 12016ft 174kts
13-Nov-20 18:46 37.793400 -121.945713 19 12026ft 181kts
13-Nov-20 18:47 37.838962 -121.918088 18 12008ft 182kts
13-Nov-20 18:48 37.885201 -121.891392 18 12004ft 183kts
13-Nov-20 18:49 37.931644 -121.864714 18 12001ft 184kts
13-Nov-20 18:50 37.978574 -121.837652 18 11997ft 185kts
13-Nov-20 18:51 38.025341 -121.810408 18 11998ft 184kts
13-Nov-20 18:52 38.072348 -121.782805 18 11668ft 193kts
13-Nov-20 18:53 38.121521 -121.754177 18 10976ft 194kts
13-Nov-20 18:54 38.169309 -121.724854 21 10274ft 177kts
13-Nov-20 18:55 38.210227 -121.694160 23 9575ft 176kts
13-Nov-20 18:56 38.254051 -121.664228 20 8999ft 181kts
13-Nov-20 18:57 38.300039 -121.638037 18 8305ft 180kts
13-Nov-20 18:58 38.344755 -121.611004 18 7616ft 175kts
13-Nov-20 18:59 38.387109 -121.584008 19 6917ft 166kts
13-Nov-20 19:00 38.428435 -121.559487 15 6214ft 162kts
13-Nov-20 19:01 38.469063 -121.537098 16 5688ft 157kts
13-Nov-20 19:02 38.508911 -121.514803 16 5187ft 155kts
13-Nov-20 19:03 38.548404 -121.492753 16 4686ft 154kts
13-Nov-20 19:04 38.588035 -121.470733 16 4188ft 155kts
13-Nov-20 19:05 38.626927 -121.448975 16 3947ft 148kts
13-Nov-20 19:06 38.664187 -121.428376 15 3947ft 145kts
13-Nov-20 19:07 38.701781 -121.407987 15 3951ft 149kts
13-Nov-20 19:08 38.740486 -121.387181 15 3948ft 150kts
13-Nov-20 19:09 38.779236 -121.366339 15 3948ft 150kts
13-Nov-20 19:10 38.817951 -121.345540 15 3848ft 156kts
13-Nov-20 19:11 38.854259 -121.357498 315 3053ft 133kts
13-Nov-20 19:12 38.879779 -121.386083 302 2543ft 123kts
13-Nov-20 19:13 38.879820 -121.423244 248 2527ft 109kts
13-Nov-20 19:14 38.868168 -121.458660 249 2446ft 109kts
13-Nov-20 19:15 38.859015 -121.497101 252 2210ft 116kts
13-Nov-20 19:16 38.848333 -121.537703 246 1880ft 116kts
13-Nov-20 19:17 38.835893 -121.574390 234 1848ft 108kts
13-Nov-20 19:18 38.805402 -121.577606 183 1830ft 109kts
13-Nov-20 19:19 38.773175 -121.578575 185 1439ft 112kts
13-Nov-20 19:20 38.749451 -121.579369 181 878ft 84kts
13-Nov-20 19:21 38.724405 -121.579720 178 429ft 88kts
13-Nov-20 19:22 38.701304 -121.580199 175 31ft 60kts
13-Nov-20 19:23 38.696836 -121.581138 271 30ft 0kts
13-Nov-20 19:24 38.696838 -121.581494 271 30ft 17kts

Navigation Log

Ident Type
Flight plan parsing failed, navigation log unavailable